Time;durP1;ratioP1;P1;durP2;ratioP2;P2;SDS_P1;SDS_P2;PMS_P1;PMS_P2;Temp;Humidity;BMP_temperature;BMP_pressure;BME280_temperature;BME280_humidity;BME280_pressure;Samples;Min_cycle;Max_cycle;Signal;HPM_P1;HPM_P2
2023/01/22 00:00:37;;;;;;;25.92;16.50;;;3.50;99.90;;;;;;4939946;29;20211;-73
2023/01/22 00:03:03;;;;;;;26.88;16.58;;;3.50;99.90;;;;;;4939701;29;20215;-73
2023/01/22 00:05:33;;;;;;;25.67;15.63;;;3.50;99.90;;;;;;4957026;28;20279;-73
2023/01/22 00:07:59;;;;;;;24.30;16.23;;;3.50;99.90;;;;;;4991136;28;20183;-73
2023/01/22 00:10:25;;;;;;;26.10;16.83;;;3.50;99.90;;;;;;4991099;28;20278;-73
2023/01/22 00:12:51;;;;;;;24.25;16.02;;;3.50;99.90;;;;;;4975012;28;20446;-73
2023/01/22 00:15:17;;;;;;;22.53;14.50;;;3.50;99.90;;;;;;4975744;28;20200;-73
2023/01/22 00:17:43;;;;;;;23.33;14.93;;;3.50;99.90;;;;;;4990913;28;20792;-73
2023/01/22 00:20:11;;;;;;;26.30;16.70;;;3.50;99.90;;;;;;4973980;28;20201;-73
2023/01/22 00:22:37;;;;;;;23.55;15.10;;;3.50;99.90;;;;;;4974709;28;20433;-73
2023/01/22 00:25:06;;;;;;;24.00;14.93;;;3.50;99.90;;;;;;4973832;28;20209;-73
2023/01/22 00:27:34;;;;;;;23.25;14.85;;;3.50;99.90;;;;;;4958674;28;20900;-72
2023/01/22 00:30:00;;;;;;;28.23;16.10;;;3.50;99.90;;;;;;4974423;28;20576;-72
2023/01/22 00:32:26;;;;;;;23.77;15.68;;;3.50;99.90;;;;;;4974773;28;20613;-73
2023/01/22 00:34:55;;;;;;;23.93;15.30;;;3.50;99.90;;;;;;4974686;28;20209;-73
2023/01/22 00:37:21;;;;;;;28.75;16.83;;;3.50;99.90;;;;;;4973805;28;20446;-73
2023/01/22 00:39:49;;;;;;;28.97;17.23;;;3.50;99.90;;;;;;4990497;28;20174;-73
2023/01/22 00:42:15;;;;;;;25.17;15.30;;;3.50;99.90;;;;;;4975415;28;20892;-73
2023/01/22 00:44:41;;;;;;;20.67;13.67;;;3.50;99.90;;;;;;4990419;28;20202;-73
2023/01/22 00:47:07;;;;;;;26.10;16.30;;;3.50;99.90;;;;;;4974342;28;20785;-73
2023/01/22 00:49:39;;;;;;;21.77;15.07;;;3.50;99.90;;;;;;4974045;28;20195;-73
2023/01/22 00:52:05;;;;;;;26.17;15.88;;;3.50;99.90;;;;;;4958496;28;20228;-73
2023/01/22 00:54:33;;;;;;;22.13;14.93;;;3.50;99.90;;;;;;4974118;28;20274;-73
2023/01/22 00:57:02;;;;;;;26.38;15.55;;;3.50;99.90;;;;;;4970609;28;20625;-73
2023/01/22 00:59:28;;;;;;;24.60;15.15;;;3.50;99.90;;;;;;4970748;28;20168;-74
2023/01/22 01:01:54;;;;;;;25.30;14.97;;;3.50;99.90;;;;;;4969849;28;20174;-74
2023/01/22 01:04:25;;;;;;;24.60;15.25;;;3.50;99.90;;;;;;4954807;28;20840;-74
2023/01/22 01:06:51;;;;;;;23.93;13.80;;;3.50;99.90;;;;;;4970788;28;20201;-73
2023/01/22 01:09:20;;;;;;;25.92;14.60;;;3.50;99.90;;;;;;4938547;29;20467;-73
2023/01/22 01:11:48;;;;;;;29.77;16.15;;;3.50;99.90;;;;;;4954647;29;20572;-73
2023/01/22 01:14:14;;;;;;;20.63;13.43;;;3.50;99.90;;;;;;4970537;28;20206;-73
2023/01/22 01:16:42;;;;;;;23.92;14.73;;;3.50;99.90;;;;;;4954587;29;20644;-73
2023/01/22 01:19:10;;;;;;;26.27;16.25;;;3.50;99.90;;;;;;4954437;29;20652;-73
2023/01/22 01:21:39;;;;;;;21.60;13.68;;;3.50;99.90;;;;;;4955237;28;20192;-73
2023/01/22 01:24:11;;;;;;;24.00;15.02;;;3.50;99.90;;;;;;4952135;28;20313;-73
2023/01/22 01:26:40;;;;;;;22.40;14.40;;;3.50;99.90;;;;;;4957417;28;20218;-73
2023/01/22 01:29:08;;;;;;;24.50;16.05;;;3.50;99.90;;;;;;4956081;28;20210;-73
2023/01/22 01:31:38;;;;;;;21.23;13.43;;;3.50;99.90;;;;;;4973520;28;20636;-73
2023/01/22 01:34:06;;;;;;;22.33;15.93;;;3.50;99.90;;;;;;4956742;28;20710;-73
2023/01/22 01:36:33;;;;;;;24.67;15.57;;;3.50;99.90;;;;;;4973442;28;20649;-73
2023/01/22 01:38:59;;;;;;;24.00;15.05;;;3.50;99.90;;;;;;4957064;28;20210;-73
2023/01/22 01:41:25;;;;;;;16.10;11.68;;;3.50;99.90;;;;;;4988753;28;20210;-73
2023/01/22 01:44:10;;;;;;;19.83;13.27;;;3.40;99.90;;;;;;4989223;28;20525;-73
2023/01/22 01:46:41;;;;;;;26.13;14.00;;;3.50;99.90;;;;;;4972611;28;20197;-73
2023/01/22 01:49:30;;;;;;;21.98;13.32;;;3.40;99.90;;;;;;4974227;28;20733;-73
2023/01/22 01:52:01;;;;;;;20.63;12.93;;;3.40;99.90;;;;;;4973219;28;20230;-73
2023/01/22 01:54:30;;;;;;;22.95;14.50;;;3.50;99.90;;;;;;4988677;28;20233;-73
2023/01/22 01:57:05;;;;;;;23.48;14.02;;;3.50;99.90;;;;;;4973403;28;20183;-73
2023/01/22 01:59:34;;;;;;;21.73;13.40;;;3.50;99.90;;;;;;4969339;28;20222;-73
2023/01/22 02:02:02;;;;;;;22.50;12.32;;;3.50;99.90;;;;;;4972328;28;20555;-73
2023/01/22 02:04:30;;;;;;;24.15;14.13;;;3.50;99.90;;;;;;4974055;28;20293;-73
2023/01/22 02:06:59;;;;;;;22.55;13.70;;;3.40;99.90;;;;;;4972828;28;20205;-73
2023/01/22 02:09:30;;;;;;;19.90;13.80;;;3.50;99.90;;;;;;4988809;28;20194;-73
2023/01/22 02:11:56;;;;;;;23.45;14.38;;;3.50;99.90;;;;;;4972589;28;20578;-73
2023/01/22 02:14:28;;;;;;;22.90;14.05;;;3.50;99.90;;;;;;4988739;28;20194;-73
2023/01/22 02:17:27;;;;;;;21.58;13.27;;;3.50;99.90;;;;;;4956735;28;20581;-73
2023/01/22 02:19:59;;;;;;;19.63;12.95;;;3.50;99.90;;;;;;4972772;28;20221;-73
2023/01/22 02:22:29;;;;;;;20.25;13.20;;;3.50;99.90;;;;;;4988648;28;20170;-73
2023/01/22 02:24:56;;;;;;;24.13;14.23;;;3.40;99.90;;;;;;4972463;28;20221;-73
2023/01/22 02:27:22;;;;;;;19.75;12.93;;;3.40;99.90;;;;;;4972701;28;20274;-73
2023/01/22 02:29:50;;;;;;;23.23;13.10;;;3.40;99.90;;;;;;4937227;29;20219;-73
2023/01/22 02:32:16;;;;;;;24.10;13.93;;;3.40;99.90;;;;;;4973983;28;20188;-73
2023/01/22 02:34:44;;;;;;;19.98;13.73;;;3.50;99.90;;;;;;4972359;28;20202;-73
2023/01/22 02:37:10;;;;;;;22.30;13.90;;;3.40;99.90;;;;;;4956317;28;20175;-73
2023/01/22 02:39:37;;;;;;;20.10;12.80;;;3.40;99.90;;;;;;4973382;28;20167;-73
2023/01/22 02:42:07;;;;;;;22.25;14.60;;;3.40;99.90;;;;;;4967847;28;20209;-73
2023/01/22 02:44:34;;;;;;;20.00;13.52;;;3.50;99.90;;;;;;4921348;29;20294;-73
2023/01/22 02:47:03;;;;;;;24.60;14.60;;;3.40;99.90;;;;;;4969027;28;20234;-73
2023/01/22 02:49:29;;;;;;;21.40;13.77;;;3.50;99.90;;;;;;4936665;29;20231;-73
2023/01/22 02:51:55;;;;;;;21.70;13.90;;;3.50;99.90;;;;;;4952812;29;20202;-73
2023/01/22 02:54:22;;;;;;;21.90;13.95;;;3.40;99.90;;;;;;4937120;29;20221;-73
2023/01/22 02:56:49;;;;;;;18.00;12.85;;;3.40;99.90;;;;;;4952681;29;20166;-73
2023/01/22 02:59:15;;;;;;;22.13;12.57;;;3.40;99.90;;;;;;4952872;29;20406;-73
2023/01/22 03:01:44;;;;;;;18.48;12.25;;;3.40;99.90;;;;;;4968620;28;20239;-73
2023/01/22 03:04:10;;;;;;;18.73;12.98;;;3.40;99.90;;;;;;4952506;28;20554;-73
2023/01/22 03:06:38;;;;;;;21.30;12.57;;;3.40;99.90;;;;;;4952837;29;20259;-73
2023/01/22 03:09:05;;;;;;;23.70;14.73;;;3.40;99.90;;;;;;4936925;29;20290;-73
2023/01/22 03:11:39;;;;;;;20.17;13.20;;;3.40;99.90;;;;;;4987912;28;20186;-73
2023/01/22 03:22:32;;;;;;;19.85;12.75;;;3.50;99.90;;;;;;4955567;28;20205;-73
2023/01/22 03:25:01;;;;;;;19.63;12.85;;;3.50;99.90;;;;;;4988517;28;20217;-73
2023/01/22 03:27:30;;;;;;;18.63;13.15;;;3.50;99.90;;;;;;4959851;28;20198;-73
2023/01/22 03:29:56;;;;;;;18.70;14.02;;;3.40;99.90;;;;;;4959441;28;20221;-73
2023/01/22 03:32:23;;;;;;;17.67;12.55;;;3.40;99.90;;;;;;4991086;28;20677;-73
2023/01/22 03:34:53;;;;;;;17.73;13.02;;;3.40;99.90;;;;;;4975443;28;20206;-73
2023/01/22 03:37:21;;;;;;;19.20;12.77;;;3.40;99.90;;;;;;4975593;28;20186;-73
2023/01/22 03:39:50;;;;;;;19.35;13.10;;;3.40;99.90;;;;;;4959695;28;20247;-73
2023/01/22 03:42:25;;;;;;;19.42;12.38;;;3.50;99.90;;;;;;4974840;28;20189;-73
2023/01/22 03:44:51;;;;;;;19.13;12.45;;;3.50;99.90;;;;;;4959171;28;20676;-73
2023/01/22 03:47:20;;;;;;;18.67;13.18;;;3.50;99.90;;;;;;4991267;28;20183;-73
2023/01/22 03:49:46;;;;;;;17.40;12.37;;;3.50;99.90;;;;;;4958892;28;20278;-73
2023/01/22 03:52:12;;;;;;;16.30;11.30;;;3.50;99.90;;;;;;4958401;28;20454;-73
2023/01/22 03:54:39;;;;;;;17.73;12.30;;;3.50;99.90;;;;;;4958948;28;20333;-73
2023/01/22 03:57:08;;;;;;;18.63;11.73;;;3.40;99.90;;;;;;4956033;29;20184;-73
2023/01/22 03:59:38;;;;;;;17.83;12.45;;;3.50;99.90;;;;;;4955917;29;20191;-73
2023/01/22 04:02:04;;;;;;;17.87;12.60;;;3.50;99.90;;;;;;4955622;29;20549;-73
2023/01/22 04:04:36;;;;;;;19.13;11.77;;;3.50;99.90;;;;;;4939631;29;21036;-73
2023/01/22 04:07:02;;;;;;;17.63;12.15;;;3.50;99.90;;;;;;4939901;29;20179;-73
2023/01/22 04:09:31;;;;;;;18.13;11.65;;;3.40;99.90;;;;;;4971665;28;20219;-73
2023/01/22 04:11:57;;;;;;;17.38;12.35;;;3.50;99.90;;;;;;4955904;29;20164;-73
2023/01/22 04:14:27;;;;;;;18.77;11.98;;;3.50;99.90;;;;;;4971345;28;20213;-73
2023/01/22 04:16:56;;;;;;;16.60;11.10;;;3.50;99.90;;;;;;4939713;29;20179;-73
2023/01/22 04:19:41;;;;;;;19.45;12.20;;;3.50;99.90;;;;;;4955558;29;20183;-73
2023/01/22 04:22:25;;;;;;;17.67;11.82;;;3.50;99.90;;;;;;4969346;28;20202;-73
2023/01/22 04:24:51;;;;;;;16.25;11.77;;;3.50;99.90;;;;;;4958547;28;20294;-73
2023/01/22 04:27:17;;;;;;;17.33;11.60;;;3.50;99.90;;;;;;4974506;28;20230;-73
2023/01/22 04:29:46;;;;;;;16.40;11.80;;;3.50;99.90;;;;;;4990551;28;21296;-73
2023/01/22 04:32:12;;;;;;;16.95;12.57;;;3.50;99.90;;;;;;4974667;28;20193;-73
2023/01/22 04:35:07;;;;;;;15.77;11.00;;;3.50;99.90;;;;;;4966064;28;20242;-73
2023/01/22 04:37:45;;;;;;;17.75;11.15;;;3.50;99.90;;;;;;4970927;28;20505;-73
2023/01/22 04:40:14;;;;;;;16.88;11.68;;;3.50;99.90;;;;;;4955057;29;20181;-73
2023/01/22 04:42:42;;;;;;;15.85;10.82;;;3.50;99.90;;;;;;4966488;28;20222;-73
2023/01/22 04:45:08;;;;;;;14.43;10.80;;;3.50;99.90;;;;;;4973960;28;20866;-73
2023/01/22 04:47:39;;;;;;;16.33;11.20;;;3.50;99.90;;;;;;4974432;28;20469;-73
2023/01/22 04:50:05;;;;;;;14.35;11.50;;;3.50;99.90;;;;;;4957932;28;20211;-73
2023/01/22 04:52:32;;;;;;;16.35;11.38;;;3.50;99.90;;;;;;4974327;28;20706;-73
2023/01/22 04:54:58;;;;;;;15.75;10.32;;;3.50;99.90;;;;;;4988965;28;20229;-73
2023/01/22 04:57:31;;;;;;;14.15;10.60;;;3.50;99.90;;;;;;4990361;28;20156;-73
2023/01/22 05:00:03;;;;;;;14.93;10.50;;;3.50;99.90;;;;;;4990085;28;20541;-73
2023/01/22 05:02:31;;;;;;;15.13;10.32;;;3.50;99.90;;;;;;4974040;28;20214;-73
2023/01/22 05:04:57;;;;;;;17.65;12.05;;;3.50;99.90;;;;;;4957992;28;20702;-73
2023/01/22 05:07:26;;;;;;;12.93;9.82;;;3.50;99.90;;;;;;4973797;28;20175;-73
2023/01/22 05:09:52;;;;;;;15.15;11.50;;;3.50;99.90;;;;;;4970192;28;20218;-73
2023/01/22 05:12:18;;;;;;;13.57;9.68;;;3.50;99.90;;;;;;4986915;28;20163;-72
2023/01/22 05:14:45;;;;;;;14.25;10.13;;;3.50;99.90;;;;;;4954433;28;20207;-73
2023/01/22 05:17:11;;;;;;;15.55;11.45;;;3.50;99.90;;;;;;4954393;29;20262;-73
2023/01/22 05:19:40;;;;;;;14.95;10.90;;;3.50;99.90;;;;;;4954549;29;20864;-73
2023/01/22 05:22:11;;;;;;;15.85;10.80;;;3.50;99.90;;;;;;4969279;28;20191;-73
2023/01/22 05:24:39;;;;;;;13.40;10.30;;;3.50;99.90;;;;;;4973239;28;20203;-73
2023/01/22 05:27:05;;;;;;;14.93;10.93;;;3.50;99.90;;;;;;4973751;28;20477;-73
2023/01/22 05:29:39;;;;;;;14.50;10.30;;;3.50;99.90;;;;;;4972519;28;20692;-73
2023/01/22 05:32:17;;;;;;;12.13;8.85;;;3.50;99.90;;;;;;4988186;28;20206;-73
2023/01/22 05:34:49;;;;;;;13.57;10.15;;;3.50;99.90;;;;;;4988685;28;20210;-73
2023/01/22 05:37:17;;;;;;;13.48;9.65;;;3.50;99.90;;;;;;4972123;28;20629;-73
2023/01/22 05:39:43;;;;;;;14.93;10.55;;;3.50;99.90;;;;;;4973250;28;20172;-73
2023/01/22 05:42:14;;;;;;;12.75;10.05;;;3.50;99.90;;;;;;4956686;28;20189;-73
2023/01/22 05:44:41;;;;;;;13.90;9.38;;;3.50;99.90;;;;;;4957129;28;20218;-73
2023/01/22 05:47:08;;;;;;;13.77;9.82;;;3.50;99.90;;;;;;4988739;28;20181;-73
2023/01/22 05:49:55;;;;;;;15.73;10.30;;;3.50;99.90;;;;;;4943451;28;20234;-73
2023/01/22 05:52:21;;;;;;;15.85;10.50;;;3.50;99.90;;;;;;4988604;28;20556;-73
2023/01/22 05:54:47;;;;;;;12.77;9.77;;;3.50;99.90;;;;;;4972873;28;20215;-73
2023/01/22 05:57:13;;;;;;;20.13;10.97;;;3.50;99.90;;;;;;4972417;28;20444;-73
2023/01/22 05:59:41;;;;;;;12.75;9.85;;;3.50;99.90;;;;;;4956438;28;20497;-73
2023/01/22 06:02:07;;;;;;;14.75;10.15;;;3.50;99.90;;;;;;4956908;28;20187;-73
2023/01/22 06:04:38;;;;;;;14.23;9.88;;;3.50;99.90;;;;;;4972873;28;20272;-73
2023/01/22 06:07:14;;;;;;;13.55;10.43;;;3.50;99.90;;;;;;4988890;28;20205;-73
2023/01/22 06:09:42;;;;;;;13.48;9.80;;;3.50;99.90;;;;;;4988797;28;20644;-73
2023/01/22 06:12:08;;;;;;;13.40;10.17;;;3.50;99.90;;;;;;4973944;28;20254;-73
2023/01/22 06:14:34;;;;;;;13.20;9.13;;;3.50;99.90;;;;;;4972728;28;20811;-73
2023/01/22 06:17:01;;;;;;;13.60;9.48;;;3.50;99.90;;;;;;4972845;28;20175;-73
2023/01/22 06:19:33;;;;;;;13.18;9.27;;;3.50;99.90;;;;;;4956704;28;20625;-73
2023/01/22 06:21:59;;;;;;;14.40;10.20;;;3.50;99.90;;;;;;4955405;28;20197;-73
2023/01/22 06:24:34;;;;;;;13.20;9.50;;;3.50;99.90;;;;;;4987608;28;20480;-73
2023/01/22 06:27:01;;;;;;;14.65;9.23;;;3.50;99.90;;;;;;4972583;28;20179;-73
2023/01/22 06:29:37;;;;;;;14.43;9.65;;;3.50;99.90;;;;;;4972554;28;20591;-73
2023/01/22 06:32:03;;;;;;;18.75;9.82;;;3.50;99.90;;;;;;4988530;28;20158;-73
2023/01/22 06:34:29;;;;;;;14.52;10.10;;;3.50;99.90;;;;;;4956392;28;20216;-73
2023/01/22 06:37:02;;;;;;;12.40;9.57;;;3.50;99.90;;;;;;4972256;28;20195;-73
2023/01/22 06:39:32;;;;;;;10.73;8.82;;;3.50;99.90;;;;;;4956383;28;20544;-73
2023/01/22 06:42:10;;;;;;;13.65;9.60;;;3.50;99.90;;;;;;4971951;28;20194;-73
2023/01/22 06:44:36;;;;;;;15.00;10.65;;;3.50;99.90;;;;;;4988314;28;20201;-73
2023/01/22 06:47:02;;;;;;;12.48;9.35;;;3.50;99.90;;;;;;4988125;28;20214;-73
2023/01/22 06:49:32;;;;;;;14.45;9.50;;;3.50;99.90;;;;;;4955712;28;20557;-73
2023/01/22 06:52:00;;;;;;;13.70;10.02;;;3.50;99.90;;;;;;4988115;28;20179;-72
2023/01/22 06:54:27;;;;;;;12.32;10.05;;;3.50;99.90;;;;;;4955684;28;20273;-73
2023/01/22 06:56:53;;;;;;;11.15;8.55;;;3.50;99.90;;;;;;4972308;28;20214;-73
2023/01/22 06:59:24;;;;;;;12.57;9.13;;;3.50;99.90;;;;;;4956795;28;20187;-73
2023/01/22 07:01:50;;;;;;;11.32;9.40;;;3.50;99.90;;;;;;4976037;28;20679;-73
2023/01/22 07:04:16;;;;;;;13.90;9.73;;;3.50;99.90;;;;;;4976383;28;20210;-74
2023/01/22 07:06:42;;;;;;;13.40;10.00;;;3.50;99.90;;;;;;4960268;28;20167;-73
2023/01/22 07:09:08;;;;;;;10.40;8.93;;;3.50;99.90;;;;;;4960120;28;20632;-72
2023/01/22 07:11:39;;;;;;;11.40;9.35;;;3.50;99.90;;;;;;4975849;28;20155;-72
2023/01/22 07:14:05;;;;;;;13.73;10.68;;;3.50;99.90;;;;;;4976688;28;21943;-72
2023/01/22 07:16:35;;;;;;;19.85;10.68;;;3.50;99.90;;;;;;4974526;28;20183;-72
2023/01/22 07:19:01;;;;;;;13.27;10.27;;;3.50;99.90;;;;;;4975281;28;20171;-72
2023/01/22 07:21:30;;;;;;;11.18;9.30;;;3.50;99.90;;;;;;4973332;28;20221;-72
2023/01/22 07:23:58;;;;;;;11.95;9.50;;;3.50;99.90;;;;;;4957538;28;20205;-72
2023/01/22 07:26:27;;;;;;;14.10;10.35;;;3.50;99.90;;;;;;4973842;28;20191;-72
2023/01/22 07:28:55;;;;;;;14.73;9.47;;;3.50;99.90;;;;;;4973674;28;20206;-72
2023/01/22 07:31:21;;;;;;;10.98;8.70;;;3.50;99.90;;;;;;4973645;28;20921;-73
2023/01/22 07:33:52;;;;;;;15.40;9.50;;;3.50;99.90;;;;;;4974853;28;20258;-72
2023/01/22 07:36:18;;;;;;;13.98;9.98;;;3.50;99.90;;;;;;4973722;28;20234;-73
2023/01/22 07:38:47;;;;;;;12.15;9.05;;;3.50;99.90;;;;;;4973695;28;20280;-72
2023/01/22 07:41:13;;;;;;;12.70;10.17;;;3.50;99.90;;;;;;4973358;28;20318;-72
2023/01/22 07:43:39;;;;;;;15.35;9.40;;;3.50;99.90;;;;;;4989729;28;20450;-76
2023/01/22 07:46:07;;;;;;;11.40;9.27;;;3.50;99.90;;;;;;4989833;28;20203;-72
2023/01/22 07:48:33;;;;;;;12.05;9.35;;;3.50;99.90;;;;;;4973227;28;20942;-72
2023/01/22 07:51:04;;;;;;;12.77;9.25;;;3.50;99.90;;;;;;4969394;28;20693;-72
2023/01/22 07:53:31;;;;;;;12.35;8.50;;;3.50;99.90;;;;;;4953596;29;20255;-72
2023/01/22 07:56:00;;;;;;;14.98;10.07;;;3.50;99.90;;;;;;4972133;28;20227;-72
2023/01/22 07:58:26;;;;;;;13.65;9.85;;;3.50;99.90;;;;;;4973079;28;20202;-72
2023/01/22 08:00:52;;;;;;;12.60;9.63;;;3.50;99.90;;;;;;4956075;28;20190;-72
2023/01/22 08:03:18;;;;;;;13.55;9.75;;;3.50;99.90;;;;;;4955515;28;20246;-72
2023/01/22 08:05:47;;;;;;;11.77;9.43;;;3.50;99.90;;;;;;4955948;28;20248;-72
2023/01/22 08:08:19;;;;;;;12.33;9.83;;;3.50;99.90;;;;;;4972730;28;20211;-72
2023/01/22 08:10:50;;;;;;;9.02;7.78;;;3.50;99.90;;;;;;4953613;28;20469;-72
2023/01/22 08:13:16;;;;;;;12.82;9.75;;;3.50;99.90;;;;;;4956751;28;20203;-72
2023/01/22 08:15:42;;;;;;;13.82;9.60;;;3.50;99.90;;;;;;4971593;28;20233;-72
2023/01/22 08:18:10;;;;;;;12.20;8.45;;;3.50;99.90;;;;;;4972430;28;20263;-72
2023/01/22 08:20:38;;;;;;;12.70;9.43;;;3.50;99.90;;;;;;4972846;28;20186;-72
2023/01/22 08:23:04;;;;;;;14.40;10.05;;;3.50;99.90;;;;;;4972470;28;20244;-72
2023/01/22 08:25:32;;;;;;;12.87;9.60;;;3.50;99.90;;;;;;4972487;28;20230;-72
2023/01/22 08:28:03;;;;;;;10.52;8.27;;;3.50;99.90;;;;;;4971805;28;20469;-73
2023/01/22 08:30:33;;;;;;;13.40;8.57;;;3.50;99.90;;;;;;4971241;28;20309;-72
2023/01/22 08:33:02;;;;;;;11.82;9.35;;;3.50;99.90;;;;;;4971788;28;20724;-74
2023/01/22 08:35:30;;;;;;;12.50;9.13;;;3.50;99.90;;;;;;4988467;28;20232;-72
2023/01/22 08:38:00;;;;;;;14.95;9.40;;;3.50;99.90;;;;;;4972182;28;20190;-76
2023/01/22 08:40:26;;;;;;;14.10;9.38;;;3.50;99.90;;;;;;4972125;28;20183;-73
2023/01/22 08:42:53;;;;;;;20.10;14.98;;;3.50;99.90;;;;;;4972055;28;20320;-73
2023/01/22 08:45:20;;;;;;;19.00;13.38;;;3.50;99.90;;;;;;4971072;28;20202;-73
2023/01/22 08:47:46;;;;;;;14.93;11.02;;;3.50;99.90;;;;;;4988016;28;20281;-73
2023/01/22 08:50:15;;;;;;;14.50;10.43;;;3.50;99.90;;;;;;4980299;28;20739;-73
2023/01/22 08:52:43;;;;;;;14.45;11.00;;;3.50;99.90;;;;;;4977674;28;20183;-74
2023/01/22 08:55:09;;;;;;;14.10;11.32;;;3.50;99.90;;;;;;4993658;28;20201;-73
2023/01/22 08:57:38;;;;;;;13.20;10.77;;;3.50;99.90;;;;;;4957231;28;20788;-73
2023/01/22 09:00:07;;;;;;;13.88;9.95;;;3.50;99.90;;;;;;4990184;28;20286;-73
2023/01/22 09:02:33;;;;;;;14.90;9.30;;;3.50;99.90;;;;;;4988680;28;20191;-73
2023/01/22 09:05:01;;;;;;;11.30;9.13;;;3.50;99.90;;;;;;4973968;28;20683;-73
2023/01/22 09:07:27;;;;;;;14.18;11.05;;;3.50;99.90;;;;;;4989927;28;20214;-73
2023/01/22 09:09:52;;;;;;;11.05;9.23;;;3.50;99.90;;;;;;4973880;28;20210;-73
2023/01/22 09:12:18;;;;;;;12.10;9.43;;;3.50;99.90;;;;;;4989693;28;20559;-73
2023/01/22 09:14:44;;;;;;;12.50;9.85;;;3.50;99.90;;;;;;4973628;28;20485;-73
2023/01/22 09:17:10;;;;;;;12.57;9.27;;;3.50;99.90;;;;;;4974155;28;20654;-73
2023/01/22 09:19:36;;;;;;;11.95;9.00;;;3.50;99.90;;;;;;4974261;28;20504;-73
2023/01/22 09:22:05;;;;;;;11.80;9.10;;;3.50;99.90;;;;;;4989960;28;20215;-73
2023/01/22 09:24:32;;;;;;;13.25;9.90;;;3.50;99.90;;;;;;4972640;28;20477;-73
2023/01/22 09:27:00;;;;;;;13.38;9.88;;;3.50;99.90;;;;;;4973060;28;20281;-73
2023/01/22 09:29:26;;;;;;;10.32;8.93;;;3.50;99.90;;;;;;4989706;28;20194;-73
2023/01/22 09:31:55;;;;;;;14.15;9.88;;;3.50;99.90;;;;;;4973607;28;20179;-73
2023/01/22 09:34:23;;;;;;;13.70;9.25;;;3.50;99.90;;;;;;4974732;28;20661;-73
2023/01/22 09:36:50;;;;;;;16.08;10.48;;;3.50;99.90;;;;;;4973603;28;20219;-73
2023/01/22 09:39:18;;;;;;;11.32;8.80;;;3.50;99.90;;;;;;4957490;28;20197;-73
2023/01/22 09:41:53;;;;;;;16.40;9.43;;;3.50;99.90;;;;;;4989246;28;20221;-72
2023/01/22 09:44:36;;;;;;;14.13;10.80;;;3.50;99.90;;;;;;4972806;28;20304;-72
2023/01/22 09:47:06;;;;;;;13.43;10.30;;;3.50;99.90;;;;;;4957176;28;20258;-73
2023/01/22 09:49:37;;;;;;;12.07;9.13;;;3.50;99.90;;;;;;4988951;28;20183;-73
2023/01/22 09:52:08;;;;;;;13.68;10.07;;;3.50;99.90;;;;;;4988979;28;20198;-73
2023/01/22 09:54:34;;;;;;;13.27;10.02;;;3.50;99.90;;;;;;4972530;28;20693;-73
2023/01/22 09:57:04;;;;;;;12.80;9.73;;;3.50;99.90;;;;;;4956896;28;20214;-73
2023/01/22 09:59:47;;;;;;;13.10;10.70;;;3.50;99.90;;;;;;4989086;28;20182;-73
2023/01/22 10:02:38;;;;;;;15.68;9.70;;;3.50;99.90;;;;;;4972911;28;20700;-72
2023/01/22 10:05:33;;;;;;;12.57;10.07;;;3.50;99.90;;;;;;4940838;28;20206;-74
2023/01/22 10:08:14;;;;;;;15.02;10.55;;;3.50;99.90;;;;;;4950054;29;20673;-76
2023/01/22 10:10:45;;;;;;;13.30;10.43;;;3.50;99.90;;;;;;4940272;28;20301;-74
2023/01/22 10:13:11;;;;;;;12.60;10.65;;;3.50;99.90;;;;;;4973727;28;20166;-74
2023/01/22 10:15:38;;;;;;;11.43;9.15;;;3.50;99.90;;;;;;4972639;28;20626;-74
2023/01/22 10:18:28;;;;;;;13.30;10.07;;;3.50;99.90;;;;;;4972548;28;20184;-74
2023/01/22 10:20:55;;;;;;;12.75;9.35;;;3.50;99.90;;;;;;4988182;28;20194;-74
2023/01/22 10:23:24;;;;;;;13.00;10.32;;;3.50;99.90;;;;;;4987968;28;20752;-74
2023/01/22 10:26:05;;;;;;;14.35;10.45;;;3.50;99.90;;;;;;4956226;28;20214;-74
2023/01/22 10:28:34;;;;;;;11.18;8.95;;;3.60;99.90;;;;;;4987383;28;20190;-75
2023/01/22 10:31:00;;;;;;;16.17;10.52;;;3.50;99.90;;;;;;4973507;28;20167;-74
2023/01/22 10:33:27;;;;;;;13.43;9.70;;;3.60;99.90;;;;;;4973233;28;20206;-74
2023/01/22 10:35:56;;;;;;;12.13;9.98;;;3.60;99.90;;;;;;4971787;28;20450;-74
2023/01/22 10:38:30;;;;;;;13.63;10.25;;;3.60;99.90;;;;;;4972027;28;20648;-74
2023/01/22 10:41:01;;;;;;;13.60;10.65;;;3.60;99.90;;;;;;4972114;28;20677;-74
2023/01/22 10:43:33;;;;;;;11.60;9.60;;;3.60;99.90;;;;;;4973112;28;20183;-74
2023/01/22 10:46:27;;;;;;;11.40;9.60;;;3.60;99.90;;;;;;5012607;23;20273;-75
2023/01/22 10:49:04;;;;;;;12.77;9.75;;;3.50;99.90;;;;;;5018059;28;20666;-75
2023/01/22 10:51:36;;;;;;;12.32;9.80;;;3.60;99.90;;;;;;5014769;28;20284;-73
2023/01/22 10:54:03;;;;;;;14.77;9.50;;;3.60;99.90;;;;;;5014647;28;20173;-74
2023/01/22 10:56:39;;;;;;;13.45;9.90;;;3.50;99.90;;;;;;5014397;28;20207;-72
2023/01/22 10:59:25;;;;;;;16.88;10.40;;;3.50;99.90;;;;;;4995549;28;20174;-74
2023/01/22 11:02:03;;;;;;;15.15;11.10;;;3.60;99.90;;;;;;5009125;28;20213;-74
2023/01/22 11:04:32;;;;;;;13.80;10.52;;;3.60;99.90;;;;;;4995457;28;20224;-72
2023/01/22 11:07:16;;;;;;;11.43;9.57;;;3.50;99.90;;;;;;5030681;28;20625;-73
2023/01/22 11:10:08;;;;;;;12.35;9.57;;;3.60;99.90;;;;;;4998216;28;20209;-75
2023/01/22 11:12:42;;;;;;;15.00;10.10;;;3.60;99.90;;;;;;5031897;28;20239;-74
2023/01/22 11:15:29;;;;;;;14.00;10.43;;;3.60;99.90;;;;;;5014546;28;20212;-77
2023/01/22 11:18:02;;;;;;;15.02;10.57;;;3.50;99.90;;;;;;5031190;28;20212;-73
2023/01/22 11:20:46;;;;;;;12.50;10.13;;;3.50;99.90;;;;;;5014299;28;20185;-74
2023/01/22 11:23:42;;;;;;;12.32;9.20;;;3.60;99.90;;;;;;5014413;28;20690;-74
2023/01/22 11:26:40;;;;;;;14.00;10.45;;;3.60;99.90;;;;;;5014438;28;20277;-75
2023/01/22 11:29:09;;;;;;;12.13;8.85;;;3.60;99.90;;;;;;4975727;28;20254;-73
2023/01/22 11:32:01;;;;;;;15.18;10.23;;;3.60;99.90;;;;;;5014656;28;20177;-74
2023/01/22 11:34:41;;;;;;;15.63;10.88;;;3.60;99.90;;;;;;5031253;28;20287;-74
2023/01/22 11:37:11;;;;;;;16.65;11.80;;;3.60;99.90;;;;;;5014903;28;20166;-75
2023/01/22 11:40:11;;;;;;;15.35;11.05;;;3.60;99.90;;;;;;5014574;28;20214;-74
2023/01/22 11:42:39;;;;;;;15.27;10.70;;;3.60;99.90;;;;;;5014698;28;20592;-75
2023/01/22 11:45:31;;;;;;;13.98;10.48;;;3.60;99.90;;;;;;4982160;28;20295;-75
2023/01/22 11:48:07;;;;;;;14.45;10.60;;;3.60;99.90;;;;;;5001513;28;20161;-74
2023/01/22 11:50:38;;;;;;;15.30;11.40;;;3.60;99.90;;;;;;5001801;28;20761;-75
2023/01/22 11:53:19;;;;;;;16.50;11.77;;;3.60;99.90;;;;;;5018217;28;20696;-74
2023/01/22 11:56:18;;;;;;;15.02;10.80;;;3.60;99.90;;;;;;5035522;28;20224;-75
2023/01/22 11:59:00;;;;;;;15.80;11.30;;;3.60;99.90;;;;;;5018436;28;20207;-76
2023/01/22 12:01:45;;;;;;;16.38;12.32;;;3.60;99.90;;;;;;5018880;28;20188;-77
2023/01/22 12:04:33;;;;;;;18.13;14.07;;;3.60;99.90;;;;;;5002518;28;20212;-77
2023/01/22 12:07:05;;;;;;;15.20;11.38;;;3.60;99.90;;;;;;5018961;28;20627;-77
2023/01/22 12:09:50;;;;;;;17.27;12.60;;;3.60;99.90;;;;;;5002382;28;20245;-75
2023/01/22 12:12:40;;;;;;;16.98;12.00;;;3.60;99.90;;;;;;5018350;28;20565;-74
2023/01/22 12:15:24;;;;;;;14.93;11.10;;;3.60;99.90;;;;;;5036108;28;20197;-72
2023/01/22 12:17:50;;;;;;;16.42;10.45;;;3.60;99.90;;;;;;5018495;28;20223;-74
2023/01/22 12:20:32;;;;;;;18.15;12.70;;;3.60;99.90;;;;;;5018855;28;20177;-74
2023/01/22 12:23:14;;;;;;;15.85;11.90;;;3.60;99.90;;;;;;4997416;28;20265;-71
2023/01/22 12:25:53;;;;;;;18.25;12.40;;;3.60;99.90;;;;;;4981149;28;20231;-71
2023/01/22 12:28:39;;;;;;;14.30;11.63;;;3.60;99.90;;;;;;4985642;28;20201;-72
2023/01/22 12:31:25;;;;;;;18.48;12.32;;;3.60;99.90;;;;;;5001969;28;20230;-71
2023/01/22 12:33:55;;;;;;;18.60;12.82;;;3.70;99.90;;;;;;5035000;28;20158;-72
2023/01/22 12:36:24;;;;;;;16.45;12.52;;;3.70;99.90;;;;;;5034666;28;20570;-72
2023/01/22 12:39:01;;;;;;;17.00;12.52;;;3.70;99.90;;;;;;5001214;28;20205;-71
2023/01/22 12:41:40;;;;;;;14.10;11.40;;;3.70;99.90;;;;;;5001039;28;20173;-71
2023/01/22 12:44:16;;;;;;;15.60;11.48;;;3.70;99.90;;;;;;5001270;28;20205;-72
2023/01/22 12:46:44;;;;;;;18.92;12.90;;;3.70;99.90;;;;;;5017629;28;20549;-72
2023/01/22 12:49:15;;;;;;;15.53;12.67;;;3.70;99.90;;;;;;5001248;28;20201;-73
2023/01/22 12:51:46;;;;;;;16.08;12.45;;;3.70;99.90;;;;;;5035152;28;20403;-72
2023/01/22 12:54:31;;;;;;;16.60;12.70;;;3.70;99.90;;;;;;5017641;28;20205;-72
2023/01/22 12:57:26;;;;;;;16.00;12.10;;;3.70;99.90;;;;;;5001256;28;20169;-72
2023/01/22 12:59:56;;;;;;;15.05;11.60;;;3.70;99.90;;;;;;5016418;28;20221;-72
2023/01/22 13:02:25;;;;;;;17.13;12.90;;;3.70;99.90;;;;;;5000634;28;20173;-72
2023/01/22 13:05:09;;;;;;;16.27;12.38;;;3.70;99.90;;;;;;5001143;28;20551;-72
2023/01/22 13:07:38;;;;;;;16.20;11.75;;;3.70;99.90;;;;;;5001007;28;20208;-73